Time;durP1;ratioP1;P1;durP2;ratioP2;P2;SDS_P1;SDS_P2;PMS_P1;PMS_P2;Temp;Humidity;BMP_temperature;BMP_pressure;BME280_temperature;BME280_humidity;BME280_pressure;Samples;Min_cycle;Max_cycle;Signal;HPM_P1;HPM_P2
2021/07/23 06:15:57;;;;;;;8.38;4.28;;;;;;;19.88;66.56;98516.11;1720097;79;21016;-72
2021/07/23 06:18:26;;;;;;;7.53;5.92;;;;;;;19.92;66.39;98524.32;1687360;85;21032;-72
2021/07/23 06:20:55;;;;;;;4.75;3.75;;;;;;;19.93;66.57;98518.70;1670523;84;20949;-73
2021/07/23 06:23:24;;;;;;;5.28;4.05;;;;;;;19.97;66.26;98521.43;1709268;83;21224;-72
2021/07/23 06:25:53;;;;;;;7.17;5.12;;;;;;;20.03;66.30;98522.66;1690769;85;20941;-72
2021/07/23 06:28:20;;;;;;;5.15;4.22;;;;;;;20.06;66.28;98518.25;1690435;85;21418;-71
2021/07/23 06:30:48;;;;;;;5.15;4.45;;;;;;;20.09;65.90;98519.28;1690951;85;20996;-73
2021/07/23 06:33:16;;;;;;;4.85;4.05;;;;;;;20.12;65.89;98527.63;1670873;85;20937;-75
2021/07/23 06:35:44;;;;;;;6.40;4.25;;;;;;;20.14;66.19;98522.36;1690773;85;21925;-73
2021/07/23 06:38:10;;;;;;;11.22;4.05;;;;;;;20.16;65.91;98521.67;1690936;85;20914;-74
2021/07/23 06:40:38;;;;;;;5.35;4.17;;;;;;;20.20;65.83;98524.43;1690981;85;21428;-71
2021/07/23 06:43:04;;;;;;;5.45;4.55;;;;;;;20.25;65.55;98520.37;1690878;85;21483;-71
2021/07/23 06:45:31;;;;;;;6.15;4.87;;;;;;;20.30;65.29;98519.35;1691065;85;20996;-71
2021/07/23 06:47:58;;;;;;;5.53;4.62;;;;;;;20.33;65.68;98517.14;1691155;85;21233;-71
2021/07/23 06:50:25;;;;;;;8.33;4.28;;;;;;;20.38;65.37;98520.73;1691330;84;20901;-68
2021/07/23 06:52:51;;;;;;;6.12;4.22;;;;;;;20.40;65.37;98515.95;1691160;85;21025;-74
2021/07/23 06:55:18;;;;;;;5.25;4.75;;;;;;;20.42;65.12;98519.88;1691206;84;20925;-76
2021/07/23 06:57:44;;;;;;;6.17;4.45;;;;;;;20.42;65.48;98512.58;1691133;85;21402;-73
2021/07/23 07:00:15;;;;;;;5.30;4.22;;;;;;;20.45;64.86;98512.24;1679869;85;21527;-68
2021/07/23 07:02:42;;;;;;;5.83;4.72;;;;;;;20.49;64.54;98517.69;1689918;85;20997;-76
2021/07/23 07:05:09;;;;;;;6.37;4.33;;;;;;;20.54;64.55;98508.52;1691021;84;20977;-73
2021/07/23 07:07:36;;;;;;;4.83;3.83;;;;;;;20.60;64.24;98511.59;1691078;85;20949;-71
2021/07/23 07:10:04;;;;;;;12.30;4.78;;;;;;;20.64;64.04;98511.58;1691397;84;21017;-69
2021/07/23 07:12:32;;;;;;;4.50;4.10;;;;;;;20.69;63.97;98509.25;1691040;85;21536;-70
2021/07/23 07:14:59;;;;;;;5.53;4.35;;;;;;;20.74;64.15;98513.69;1691322;84;21032;-70
2021/07/23 07:17:28;;;;;;;6.03;4.10;;;;;;;20.81;64.34;98510.63;1692683;84;20960;-69
2021/07/23 07:19:54;;;;;;;5.12;3.90;;;;;;;20.88;63.97;98513.53;1740834;82;20884;-70
2021/07/23 07:22:23;;;;;;;5.47;4.03;;;;;;;20.97;63.93;98513.00;1740043;82;20933;-70
2021/07/23 07:24:49;;;;;;;6.30;4.40;;;;;;;21.04;63.08;98509.42;1720888;83;21744;-69
2021/07/23 07:27:15;;;;;;;5.42;4.87;;;;;;;21.11;63.01;98506.86;1726104;83;21362;-70
2021/07/23 07:29:42;;;;;;;8.68;4.45;;;;;;;21.18;62.73;98507.89;1721077;83;21394;-70
2021/07/23 07:32:09;;;;;;;4.55;4.00;;;;;;;21.27;62.76;98504.66;1720784;83;21323;-70
2021/07/23 07:34:36;;;;;;;5.97;4.45;;;;;;;21.38;62.21;98504.78;1721082;83;20949;-70
2021/07/23 07:37:03;;;;;;;6.05;3.62;;;;;;;21.47;61.34;98511.45;1721024;83;21063;-71
2021/07/23 07:39:30;;;;;;;9.35;5.25;;;;;;;21.56;61.19;98501.38;1720954;83;21559;-71
2021/07/23 07:41:56;;;;;;;4.97;4.50;;;;;;;21.62;60.38;98504.78;1726128;83;20918;-69
2021/07/23 07:44:22;;;;;;;6.05;4.53;;;;;;;21.68;60.42;98503.23;1720885;83;20952;-69
2021/07/23 07:46:48;;;;;;;8.98;4.65;;;;;;;21.74;61.01;98499.81;1721082;83;20991;-70
2021/07/23 07:49:16;;;;;;;14.83;4.72;;;;;;;21.85;61.86;98495.81;1725952;83;21507;-70
2021/07/23 07:51:43;;;;;;;5.00;4.42;;;;;;;22.00;62.59;98495.95;1720806;83;20909;-72
2021/07/23 07:54:12;;;;;;;5.47;4.45;;;;;;;22.20;61.12;98497.75;1725753;83;20976;-70
2021/07/23 07:56:39;;;;;;;5.33;4.40;;;;;;;22.38;60.44;98498.34;1721467;83;21516;-71
2021/07/23 07:59:05;;;;;;;10.45;4.37;;;;;;;22.52;59.61;98489.04;1720860;83;21412;-71
2021/07/23 08:01:32;;;;;;;6.10;4.37;;;;;;;22.66;59.16;98489.63;1720808;83;21990;-71
2021/07/23 08:03:58;;;;;;;7.28;5.05;;;;;;;22.81;57.97;98486.09;1720722;83;21524;-70
2021/07/23 08:06:27;;;;;;;5.12;3.87;;;;;;;22.96;58.17;98493.02;1726255;82;20932;-71
2021/07/23 08:08:56;;;;;;;6.90;4.67;;;;;;;23.07;57.50;98493.41;1720764;83;20928;-70
2021/07/23 08:11:24;;;;;;;6.30;4.60;;;;;;;23.18;56.67;98488.58;1721941;83;20972;-87
2021/07/23 08:13:52;;;;;;;6.97;4.50;;;;;;;23.22;55.99;98494.00;1720891;83;22114;-68
2021/07/23 08:16:19;;;;;;;6.70;4.55;;;;;;;23.26;56.17;98498.08;1725283;82;21003;-68
2021/07/23 08:18:45;;;;;;;4.78;4.28;;;;;;;23.28;55.96;98491.36;1715265;83;20901;-68
2021/07/23 08:21:12;;;;;;;5.28;4.22;;;;;;;23.35;56.92;98486.01;1715252;83;21025;-69
2021/07/23 08:23:38;;;;;;;4.67;4.28;;;;;;;23.47;56.64;98491.03;1714898;83;21035;-69
2021/07/23 08:26:06;;;;;;;6.37;4.67;;;;;;;23.57;55.68;98491.59;1713158;83;21081;-69
2021/07/23 08:28:33;;;;;;;6.67;4.25;;;;;;;23.68;55.81;98492.52;1731103;83;20912;-69
2021/07/23 08:30:59;;;;;;;5.12;4.37;;;;;;;23.79;55.78;98498.91;1722386;83;20983;-69
2021/07/23 08:33:25;;;;;;;5.45;4.95;;;;;;;23.92;54.58;98496.05;1720762;83;20925;-69
2021/07/23 08:35:53;;;;;;;6.70;4.42;;;;;;;24.05;55.04;98490.73;1708030;83;20957;-69
2021/07/23 08:38:20;;;;;;;11.57;4.67;;;;;;;24.18;54.34;98492.27;1708115;84;21096;-72
2021/07/23 08:40:46;;;;;;;7.05;4.40;;;;;;;24.31;54.21;98487.98;1721079;83;20933;-74
2021/07/23 08:43:14;;;;;;;7.22;4.37;;;;;;;24.44;52.94;98489.53;1720645;83;21521;-73
2021/07/23 08:45:42;;;;;;;4.42;3.60;;;;;;;24.58;53.06;98484.20;1708388;84;20985;-74
2021/07/23 08:48:09;;;;;;;5.90;3.92;;;;;;;24.70;53.13;98480.75;1707784;84;21047;-80
2021/07/23 08:50:37;;;;;;;9.98;4.05;;;;;;;24.84;53.03;98486.39;1720786;83;21204;-75
2021/07/23 08:53:09;;;;;;;4.15;3.75;;;;;;;24.96;52.58;98483.95;1720867;83;20936;-75
2021/07/23 08:55:34;;;;;;;4.75;3.42;;;;;;;25.09;52.16;98482.72;1707477;83;20949;-77
2021/07/23 08:58:01;;;;;;;4.33;3.70;;;;;;;25.19;51.84;98484.59;1708027;84;20949;-75
2021/07/23 09:00:28;;;;;;;3.50;3.15;;;;;;;25.29;51.23;98490.30;1708114;84;21391;-74
2021/07/23 09:03:02;;;;;;;3.92;3.27;;;;;;;25.34;50.63;98487.29;1707998;84;21106;-75
2021/07/23 09:05:38;;;;;;;4.53;4.12;;;;;;;25.39;50.49;98486.70;1708036;84;20941;-75
2021/07/23 09:08:14;;;;;;;6.45;3.58;;;;;;;25.38;50.26;98480.86;1720704;83;20991;-75
2021/07/23 09:10:41;;;;;;;6.60;3.75;;;;;;;25.38;50.27;98480.86;1720715;83;20949;-76
2021/07/23 09:13:09;;;;;;;4.65;3.80;;;;;;;25.47;51.33;98481.04;1720781;83;20999;-76
2021/07/23 09:15:41;;;;;;;3.40;3.10;;;;;;;25.59;50.78;98483.56;1707958;84;21533;-76
2021/07/23 09:18:28;;;;;;;3.98;3.12;;;;;;;25.72;47.82;98479.20;1707892;82;20870;-69
2021/07/23 09:21:05;;;;;;;5.25;2.98;;;;;;;25.82;46.27;98471.95;1707917;84;20913;-67
2021/07/23 09:23:38;;;;;;;5.53;3.08;;;;;;;25.90;47.01;98480.88;1708160;84;20902;-67
2021/07/23 09:26:13;;;;;;;4.60;3.27;;;;;;;25.96;47.98;98479.22;1708209;84;20925;-68
2021/07/23 09:28:49;;;;;;;6.28;3.98;;;;;;;26.06;48.25;98481.63;1708054;84;21174;-67
2021/07/23 09:31:24;;;;;;;9.73;3.52;;;;;;;26.17;48.21;98471.41;1708145;84;21343;-68
2021/07/23 09:33:58;;;;;;;6.12;2.67;;;;;;;26.25;46.18;98476.76;1708497;84;20945;-68
2021/07/23 09:36:24;;;;;;;4.37;2.83;;;;;;;26.29;45.71;98476.65;1721152;83;20968;-67
2021/07/23 09:38:51;;;;;;;5.00;2.80;;;;;;;26.31;46.02;98474.56;1708087;83;20993;-67
2021/07/23 09:41:25;;;;;;;3.77;2.85;;;;;;;26.38;47.09;98466.83;1720981;83;21120;-66
2021/07/23 09:44:08;;;;;;;3.05;2.70;;;;;;;26.50;47.82;98465.17;1720807;83;21000;-67
2021/07/23 09:46:48;;;;;;;;;;;;;;;26.61;46.21;98465.94;1723417;83;20932;-67
2021/07/23 09:49:26;;;;;;;3.30;3.00;;;;;;;26.68;44.26;98454.98;1708264;84;20140;-67
2021/07/23 09:51:55;;;;;;;3.83;2.52;;;;;;;26.75;45.08;98463.25;1708211;84;20957;-68
2021/07/23 09:54:22;;;;;;;6.47;2.85;;;;;;;26.79;44.32;98459.04;1708389;84;21044;-66
2021/07/23 09:56:50;;;;;;;4.60;3.00;;;;;;;26.84;45.44;98453.73;1708103;84;20905;-67
2021/07/23 09:59:43;;;;;;;4.30;2.85;;;;;;;26.92;46.32;98456.28;1708477;84;20917;-66
2021/07/23 10:02:20;;;;;;;5.42;3.12;;;;;;;27.02;45.94;98457.23;1720840;83;20972;-68
2021/07/23 10:05:03;;;;;;;4.67;4.03;;;;;;;27.09;46.66;98453.09;1721410;83;20901;-67
2021/07/23 10:07:42;;;;;;;5.03;2.80;;;;;;;27.14;46.57;98450.58;1721200;83;21804;-67
2021/07/23 10:10:12;;;;;;;4.12;2.72;;;;;;;27.17;45.19;98450.16;1707990;83;21016;-67
2021/07/23 10:12:41;;;;;;;3.98;2.72;;;;;;;27.15;44.88;98446.73;1720945;83;21036;-66
2021/07/23 10:15:10;;;;;;;2.98;2.75;;;;;;;27.07;44.84;98438.69;1720822;83;20904;-66
2021/07/23 10:17:38;;;;;;;3.83;3.22;;;;;;;27.02;45.98;98442.08;1722050;82;20873;-66
2021/07/23 10:20:06;;;;;;;4.40;2.77;;;;;;;26.98;45.41;98444.42;1724427;83;21098;-67
2021/07/23 10:22:33;;;;;;;4.62;2.45;;;;;;;26.96;45.05;98446.55;1724278;83;20850;-67
2021/07/23 10:24:59;;;;;;;3.40;2.35;;;;;;;26.95;43.96;98439.33;1724424;83;20893;-66
2021/07/23 10:27:26;;;;;;;3.05;2.52;;;;;;;26.96;42.64;98442.41;1724313;83;20921;-67
2021/07/23 10:29:54;;;;;;;3.17;2.85;;;;;;;26.96;42.69;98438.28;1724719;83;20957;-66
2021/07/23 10:32:34;;;;;;;4.22;2.80;;;;;;;26.97;42.84;98432.23;1724287;83;20866;-66
2021/07/23 10:35:19;;;;;;;6.05;2.15;;;;;;;26.98;42.84;98434.77;1711902;83;20985;-66
2021/07/23 10:37:49;;;;;;;2.65;2.33;;;;;;;26.97;43.59;98433.60;1711889;83;20901;-66
2021/07/23 10:40:18;;;;;;;5.17;2.65;;;;;;;26.99;42.62;98432.34;1712270;83;20929;-66
2021/07/23 10:42:45;;;;;;;3.37;2.40;;;;;;;27.02;42.13;98429.17;1712001;83;20926;-67
2021/07/23 10:45:14;;;;;;;3.55;2.83;;;;;;;27.01;43.43;98421.95;1711891;83;21197;-67
2021/07/23 10:47:51;;;;;;;4.70;3.65;;;;;;;27.00;42.57;98428.51;1711630;83;20953;-67
2021/07/23 10:50:32;;;;;;;3.30;3.00;;;;;;;26.99;42.72;98421.32;1712257;83;21403;-68
2021/07/23 10:53:26;;;;;;;3.98;3.45;;;;;;;26.99;42.75;98424.08;1712368;83;20886;-67
2021/07/23 10:55:53;;;;;;;5.70;3.77;;;;;;;26.96;41.96;98421.74;1712433;83;20992;-66
2021/07/23 10:58:25;;;;;;;4.00;3.55;;;;;;;26.92;42.73;98424.59;1712097;83;21123;-67
2021/07/23 11:00:58;;;;;;;4.80;3.47;;;;;;;26.92;43.45;98423.21;1711998;83;23096;-67
2021/07/23 11:03:39;;;;;;;9.63;4.15;;;;;;;26.93;44.33;98424.92;1712168;83;21399;-67
2021/07/23 11:06:17;;;;;;;4.25;3.00;;;;;;;26.90;44.25;98419.83;1708463;83;20922;-67
2021/07/23 11:08:51;;;;;;;6.12;3.62;;;;;;;26.85;43.97;98420.47;1712141;83;20984;-66
2021/07/23 11:11:19;;;;;;;3.85;3.00;;;;;;;26.85;44.45;98416.84;1712248;83;21155;-65
2021/07/23 11:13:45;;;;;;;4.22;3.52;;;;;;;26.89;45.70;98420.88;1711991;83;20882;-66
2021/07/23 11:16:16;;;;;;;4.00;3.12;;;;;;;26.90;44.80;98412.94;1712534;83;20906;-66
2021/07/23 11:18:58;;;;;;;4.72;3.58;;;;;;;26.91;45.05;98407.73;1711815;83;21220;-67
2021/07/23 11:21:37;;;;;;;6.50;3.70;;;;;;;26.88;44.30;98409.52;1712058;83;20933;-65
2021/07/23 11:24:13;;;;;;;4.28;3.42;;;;;;;26.81;44.02;98403.19;1673323;85;24070;-67
2021/07/23 11:26:50;;;;;;;4.53;3.02;;;;;;;26.76;44.31;98409.86;1673424;85;21463;-67
2021/07/23 11:29:31;;;;;;;6.22;3.70;;;;;;;26.68;44.06;98404.86;1673088;85;20938;-66
2021/07/23 11:32:11;;;;;;;3.17;2.60;;;;;;;26.65;44.56;98405.82;1673558;85;21360;-67
2021/07/23 11:34:40;;;;;;;3.65;3.10;;;;;;;26.63;43.50;98406.50;1673200;85;20918;-67
2021/07/23 11:37:23;;;;;;;5.25;3.15;;;;;;;26.61;43.84;98408.09;1673389;85;21165;-66
2021/07/23 11:39:52;;;;;;;7.72;3.33;;;;;;;26.55;44.57;98403.45;1673210;85;21028;-67
2021/07/23 11:42:18;;;;;;;4.25;2.70;;;;;;;26.54;43.86;98402.28;1673369;85;20871;-67
2021/07/23 11:44:53;;;;;;;4.20;2.95;;;;;;;26.52;44.83;98401.12;1673198;85;20910;-66
2021/07/23 11:47:38;;;;;;;3.25;2.50;;;;;;;26.55;44.22;98397.07;1673591;85;21036;-68
2021/07/23 11:50:21;;;;;;;9.10;3.02;;;;;;;26.52;40.62;98401.12;1731241;82;21138;-68
2021/07/23 11:52:50;;;;;;;3.65;2.85;;;;;;;26.45;40.90;98398.33;1731948;83;20865;-67
2021/07/23 11:55:17;;;;;;;7.17;3.33;;;;;;;26.37;42.44;98390.27;1732078;83;20904;-67
2021/07/23 11:57:46;;;;;;;5.05;2.62;;;;;;;26.31;42.61;98396.61;1732078;82;20905;-66
2021/07/23 12:00:24;;;;;;;5.75;2.67;;;;;;;26.23;43.03;98394.05;1731830;83;21358;-67
2021/07/23 12:02:52;;;;;;;4.58;2.75;;;;;;;26.16;44.56;98392.66;1732308;82;21072;-66
2021/07/23 12:05:20;;;;;;;2.83;2.52;;;;;;;26.10;43.68;98389.36;1731708;83;21492;-66
2021/07/23 12:08:00;;;;;;;7.53;2.62;;;;;;;26.05;42.67;98393.27;1732085;82;21354;-67
2021/07/23 12:10:32;;;;;;;2.92;2.20;;;;;;;26.04;41.82;98394.30;1732097;82;21259;-67
2021/07/23 12:13:11;;;;;;;3.17;1.90;;;;;;;26.02;41.80;98393.14;1732286;83;20996;-67
2021/07/23 12:15:47;;;;;;;4.40;3.02;;;;;;;26.00;41.75;98395.25;1729128;82;21142;-67
2021/07/23 12:18:23;;;;;;;7.05;2.85;;;;;;;26.02;42.37;98392.30;1734886;82;20888;-68
2021/07/23 12:20:51;;;;;;;2.35;2.12;;;;;;;26.04;42.67;98394.30;1741858;82;20908;-66
2021/07/23 12:23:28;;;;;;;3.55;2.20;;;;;;;26.06;42.57;98394.44;1742215;82;20916;-66
2021/07/23 12:25:57;;;;;;;3.12;2.47;;;;;;;26.07;40.58;98395.27;1741899;82;20806;-67
2021/07/23 12:28:24;;;;;;;2.85;2.37;;;;;;;26.06;39.99;98397.69;1714759;82;21068;-67
2021/07/23 12:30:51;;;;;;;3.55;2.52;;;;;;;26.05;39.90;98391.89;1741751;82;20908;-66
2021/07/23 12:33:25;;;;;;;2.70;2.15;;;;;;;26.03;40.92;98393.98;1741785;82;20912;-67
2021/07/23 12:35:57;;;;;;;4.47;2.77;;;;;;;26.04;40.78;98395.69;1741778;82;21358;-67
2021/07/23 12:38:19;;;;;;;3.27;2.62;;;;;;;26.05;41.58;98387.76;1740593;82;20893;-67
2021/07/23 12:40:50;;;;;;;3.40;2.37;;;;;;;26.08;41.91;98393.69;1741955;82;21171;-66
2021/07/23 12:43:18;;;;;;;5.20;2.55;;;;;;;26.11;40.81;98384.16;1742096;82;20853;-67
2021/07/23 12:45:47;;;;;;;4.83;2.27;;;;;;;26.14;40.97;98392.00;1741854;82;20868;-66
2021/07/23 12:48:21;;;;;;;3.50;2.58;;;;;;;26.16;40.50;98389.91;1741814;82;20911;-67
2021/07/23 12:51:09;;;;;;;3.98;2.87;;;;;;;26.23;40.81;98392.13;1741954;82;21381;-67
2021/07/23 12:53:35;;;;;;;6.87;2.60;;;;;;;26.25;40.79;98392.80;1742257;82;21027;-66
2021/07/23 12:56:06;;;;;;;3.20;2.90;;;;;;;26.35;41.13;98394.27;1741898;82;20872;-67
2021/07/23 12:58:46;;;;;;;3.83;2.22;;;;;;;26.41;41.65;98386.56;1741516;82;20916;-67
2021/07/23 13:01:15;;;;;;;6.42;2.58;;;;;;;26.48;42.40;98380.55;1741715;82;20916;-67
2021/07/23 13:03:44;;;;;;;4.80;3.00;;;;;;;26.57;41.38;98376.54;1742302;82;20904;-67
2021/07/23 13:06:12;;;;;;;3.75;3.02;;;;;;;26.66;41.87;98379.95;1741790;82;21126;-68
2021/07/23 13:08:39;;;;;;;2.85;2.50;;;;;;;26.74;41.49;98374.27;1741707;82;21639;-67
2021/07/23 13:11:09;;;;;;;4.15;2.62;;;;;;;26.80;41.75;98369.79;1741910;82;20865;-67
2021/07/23 13:13:41;;;;;;;4.25;3.05;;;;;;;26.82;40.73;98373.17;1741769;82;21006;-66
2021/07/23 13:16:10;;;;;;;4.78;2.30;;;;;;;26.84;41.24;98366.95;1741883;82;20857;-66
2021/07/23 13:18:36;;;;;;;3.12;2.30;;;;;;;26.88;40.97;98366.81;1741871;82;21752;-67
2021/07/23 13:21:04;;;;;;;3.77;2.50;;;;;;;26.92;39.81;98365.34;1741702;82;20960;-66
2021/07/23 13:23:31;;;;;;;6.53;2.52;;;;;;;26.99;39.79;98364.83;1741847;82;20916;-67
2021/07/23 13:26:02;;;;;;;13.28;2.75;;;;;;;27.00;39.61;98356.84;1741814;82;20846;-67
2021/07/23 13:28:29;;;;;;;5.37;2.58;;;;;;;27.00;38.84;98361.52;1742153;82;20865;-65
2021/07/23 13:30:56;;;;;;;3.17;2.47;;;;;;;26.98;38.85;98353.47;1741841;82;21126;-66
2021/07/23 13:33:22;;;;;;;3.27;2.87;;;;;;;26.97;38.88;98357.28;1741948;82;20912;-65
2021/07/23 13:35:52;;;;;;;2.70;2.40;;;;;;;26.95;37.77;98351.14;1741868;82;21007;-67
2021/07/23 13:38:22;;;;;;;4.53;2.72;;;;;;;26.94;37.92;98352.19;1741788;82;20880;-66
2021/07/23 13:40:49;;;;;;;4.22;2.75;;;;;;;26.94;38.72;98349.44;1741789;82;21393;-67
2021/07/23 13:43:16;;;;;;;5.50;2.52;;;;;;;26.92;38.25;98354.32;1741897;82;21909;-66
2021/07/23 13:45:43;;;;;;;8.35;3.02;;;;;;;26.92;39.14;98348.81;1741792;82;21437;-66
2021/07/23 13:48:10;;;;;;;5.20;3.20;;;;;;;26.93;40.25;98356.03;1741694;82;20884;-67
2021/07/23 13:50:36;;;;;;;6.97;3.00;;;;;;;26.93;41.01;98345.00;1741794;82;20845;-67
2021/07/23 13:53:03;;;;;;;3.52;2.95;;;;;;;26.95;40.88;98353.89;1741877;82;20897;-67
2021/07/23 13:55:30;;;;;;;5.37;2.83;;;;;;;26.98;40.96;98347.13;1741795;82;21069;-67
2021/07/23 13:57:56;;;;;;;5.72;3.08;;;;;;;27.02;39.77;98343.73;1741723;82;20900;-67
2021/07/23 14:00:23;;;;;;;2.92;2.33;;;;;;;27.07;41.02;98343.05;1741963;82;21342;-67
2021/07/23 14:02:49;;;;;;;2.72;2.33;;;;;;;27.09;40.02;98342.84;1741781;82;20912;-67
2021/07/23 14:05:16;;;;;;;3.50;2.45;;;;;;;27.10;39.60;98341.79;1741773;82;20908;-67
2021/07/23 14:07:43;;;;;;;6.75;2.87;;;;;;;27.10;39.00;98341.79;1742202;82;21122;-67
2021/07/23 14:10:11;;;;;;;3.95;2.30;;;;;;;27.09;38.83;98338.20;1741703;82;21018;-67
2021/07/23 14:12:37;;;;;;;3.20;2.77;;;;;;;27.07;39.20;98344.97;1742000;82;21338;-67
2021/07/23 14:15:05;;;;;;;5.17;2.83;;;;;;;27.04;39.89;98341.59;1741802;82;21417;-68
2021/07/23 14:17:32;;;;;;;4.42;2.50;;;;;;;27.01;41.05;98346.16;1742147;82;20881;-68
2021/07/23 14:19:58;;;;;;;4.90;3.10;;;;;;;27.01;41.18;98344.77;1741726;82;21149;-68
2021/07/23 14:22:26;;;;;;;5.90;3.37;;;;;;;27.01;41.31;98347.53;1741824;82;20900;-67
2021/07/23 14:24:54;;;;;;;4.75;4.35;;;;;;;26.97;40.93;98346.25;1741852;82;20869;-68
2021/07/23 14:27:20;;;;;;;6.60;3.10;;;;;;;26.91;41.27;98341.59;1741829;82;20876;-67
2021/07/23 14:29:47;;;;;;;5.65;2.92;;;;;;;26.83;40.70;98340.44;1741884;82;21299;-67
2021/07/23 14:32:13;;;;;;;3.02;2.83;;;;;;;26.76;41.44;98340.45;1741952;82;21073;-67
2021/07/23 14:34:39;;;;;;;5.17;3.08;;;;;;;26.73;41.57;98341.41;1741798;82;20959;-67
2021/07/23 14:37:06;;;;;;;3.58;2.65;;;;;;;26.70;41.39;98343.21;1741970;82;20861;-67
2021/07/23 14:39:35;;;;;;;4.55;3.00;;;;;;;26.68;41.62;98342.05;1741820;82;20916;-67
2021/07/23 14:42:02;;;;;;;2.62;2.00;;;;;;;26.64;42.93;98340.73;1741932;82;21468;-68
2021/07/23 14:44:28;;;;;;;3.80;3.02;;;;;;;26.63;41.92;98339.02;1742181;82;21173;-67
2021/07/23 14:46:55;;;;;;;3.75;2.62;;;;;;;26.61;42.55;98332.34;1741898;82;20852;-68
2021/07/23 14:49:21;;;;;;;4.80;3.65;;;;;;;26.61;42.97;98341.98;1741999;82;20968;-66
2021/07/23 14:51:47;;;;;;;5.00;2.45;;;;;;;26.59;42.75;98335.85;1741924;82;20869;-67
2021/07/23 14:54:14;;;;;;;2.52;2.33;;;;;;;26.56;42.60;98336.27;1742254;82;20963;-68
2021/07/23 14:56:41;;;;;;;2.80;2.50;;;;;;;26.53;42.42;98333.94;1741902;82;21152;-67
2021/07/23 14:59:07;;;;;;;6.65;2.62;;;;;;;26.51;43.10;98334.69;1742134;82;20889;-67
2021/07/23 15:01:33;;;;;;;5.55;2.25;;;;;;;26.49;42.97;98337.66;1741967;82;20912;-68
2021/07/23 15:03:59;;;;;;;8.40;2.75;;;;;;;26.48;43.87;98335.11;1742122;82;20960;-67
2021/07/23 15:06:26;;;;;;;4.75;2.52;;;;;;;26.47;44.36;98337.53;1741962;82;20892;-67
2021/07/23 15:08:54;;;;;;;3.22;2.70;;;;;;;26.44;43.89;98332.45;1741801;82;39262;-67
2021/07/23 15:11:22;;;;;;;5.62;2.83;;;;;;;26.43;43.36;98334.36;1741727;82;20900;-68
2021/07/23 15:13:48;;;;;;;5.20;3.10;;;;;;;26.41;43.26;98329.60;1741951;82;20865;-67
2021/07/23 15:16:15;;;;;;;3.10;2.50;;;;;;;26.39;43.42;98325.35;1741920;82;20896;-67
2021/07/23 15:18:44;;;;;;;4.30;2.47;;;;;;;26.38;43.24;98326.40;1741794;82;20947;-67
2021/07/23 15:21:11;;;;;;;5.15;3.45;;;;;;;26.33;42.89;98326.52;1741782;82;21135;-67
2021/07/23 15:23:39;;;;;;;7.95;3.87;;;;;;;26.29;43.14;98329.91;1741741;82;20861;-67
2021/07/23 15:26:08;;;;;;;13.88;3.30;;;;;;;26.24;43.50;98324.19;1741857;82;20841;-67
2021/07/23 15:28:35;;;;;;;8.73;3.00;;;;;;;26.19;43.14;98326.69;1741884;82;20904;-67
2021/07/23 15:31:03;;;;;;;5.85;2.85;;;;;;;26.14;42.83;98319.06;1742030;82;21325;-68
2021/07/23 15:33:30;;;;;;;5.00;3.40;;;;;;;26.09;43.58;98327.94;1741823;82;21074;-67
2021/07/23 15:35:57;;;;;;;8.50;5.62;;;;;;;26.05;43.90;98320.34;1741888;82;20883;-67
2021/07/23 15:38:24;;;;;;;15.72;10.40;;;;;;;26.01;44.51;98324.55;1741902;82;20876;-67
2021/07/23 15:40:51;;;;;;;12.73;9.78;;;;;;;25.95;44.39;98320.17;1742017;82;20924;-68
2021/07/23 15:43:18;;;;;;;11.55;9.00;;;;;;;25.91;44.91;98320.79;1741857;82;20861;-67
2021/07/23 15:45:45;;;;;;;7.05;5.53;;;;;;;25.86;45.19;98318.66;1741888;82;21138;-67
2021/07/23 15:48:11;;;;;;;8.68;5.28;;;;;;;25.81;45.35;98317.06;1741732;82;20948;-68
2021/07/23 15:50:39;;;;;;;5.78;3.75;;;;;;;25.75;46.09;98311.01;1741851;82;20963;-67
2021/07/23 15:53:06;;;;;;;9.50;4.45;;;;;;;25.70;45.93;98310.75;1741863;82;20837;-67
2021/07/23 15:55:32;;;;;;;5.80;3.30;;;;;;;25.64;45.95;98307.45;1741950;82;20924;-68
2021/07/23 15:57:58;;;;;;;5.15;3.85;;;;;;;25.56;46.12;98310.72;1742084;82;21064;-66
2021/07/23 16:00:25;;;;;;;4.80;4.15;;;;;;;25.49;46.31;98309.83;1741980;82;20893;-67
2021/07/23 16:02:54;;;;;;;8.30;3.25;;;;;;;25.41;46.59;98305.34;1741884;82;20909;-67
2021/07/23 16:05:24;;;;;;;4.72;3.12;;;;;;;25.34;46.26;98311.36;1741941;82;20991;-67
2021/07/23 16:07:52;;;;;;;4.15;2.75;;;;;;;25.25;47.07;98310.63;1741791;82;20892;-66
2021/07/23 16:10:18;;;;;;;6.53;3.75;;;;;;;25.14;47.63;98304.34;1741951;82;21773;-67
2021/07/23 16:12:46;;;;;;;4.03;2.95;;;;;;;25.06;47.95;98306.72;1741730;82;20822;-67
2021/07/23 16:15:15;;;;;;;6.67;3.08;;;;;;;24.97;47.64;98301.59;1741728;82;20817;-67
2021/07/23 16:17:41;;;;;;;3.47;2.60;;;;;;;24.88;47.65;98310.00;1742038;82;20880;-68
2021/07/23 16:20:10;;;;;;;5.85;2.70;;;;;;;24.80;48.03;98311.53;1733226;82;20944;-67
2021/07/23 16:22:37;;;;;;;4.97;2.80;;;;;;;24.71;47.67;98307.23;1720999;83;21112;-67
2021/07/23 16:25:07;;;;;;;3.72;2.70;;;;;;;24.63;48.02;98306.02;1720840;83;20941;-67
2021/07/23 16:27:33;;;;;;;4.75;3.33;;;;;;;24.54;48.49;98305.27;1720972;83;20971;-67
2021/07/23 16:30:00;;;;;;;4.75;2.58;;;;;;;24.47;49.23;98302.47;1720791;83;21027;-67
2021/07/23 16:32:26;;;;;;;7.17;2.95;;;;;;;24.39;48.65;98301.75;1721021;82;20877;-66
2021/07/23 16:34:52;;;;;;;4.60;3.25;;;;;;;24.32;49.31;98300.33;1725888;82;21043;-68
2021/07/23 16:37:19;;;;;;;6.35;3.15;;;;;;;24.25;49.84;98303.02;1720870;83;21386;-68
2021/07/23 16:39:45;;;;;;;5.30;3.35;;;;;;;24.19;50.13;98307.91;1725787;82;21390;-66
2021/07/23 16:42:13;;;;;;;5.33;2.60;;;;;;;24.14;50.21;98304.39;1720975;83;20885;-66
2021/07/23 16:44:39;;;;;;;4.35;2.75;;;;;;;24.10;50.98;98307.18;1720839;83;21414;-66
2021/07/23 16:47:05;;;;;;;6.28;2.70;;;;;;;24.08;51.35;98305.70;1726234;83;21148;-66
2021/07/23 16:49:32;;;;;;;6.75;3.50;;;;;;;24.04;51.34;98309.86;1720877;83;20931;-67
2021/07/23 16:52:01;;;;;;;3.90;3.08;;;;;;;24.00;51.02;98316.27;1721132;83;20948;-67
2021/07/23 16:54:26;;;;;;;6.37;3.58;;;;;;;23.97;51.64;98312.55;1725825;83;20921;-68
2021/07/23 16:56:53;;;;;;;7.72;4.00;;;;;;;23.92;51.35;98306.80;1721289;83;20956;-66
2021/07/23 16:59:20;;;;;;;4.75;3.77;;;;;;;23.89;52.05;98308.56;1725743;82;21084;-67
2021/07/23 17:01:46;;;;;;;6.30;3.62;;;;;;;23.86;52.56;98315.27;1721344;83;20928;-68
2021/07/23 17:04:12;;;;;;;11.08;4.35;;;;;;;23.81;52.71;98306.22;1720959;83;21000;-68
2021/07/23 17:06:41;;;;;;;9.45;4.12;;;;;;;23.77;53.07;98310.38;1725744;82;21035;-68
2021/07/23 17:09:08;;;;;;;9.65;4.75;;;;;;;23.71;53.45;98311.15;1720859;83;20937;-68
2021/07/23 17:11:35;;;;;;;9.85;6.45;;;;;;;23.66;53.66;98310.05;1720932;83;21109;-68
2021/07/23 17:14:01;;;;;;;9.50;6.05;;;;;;;23.61;54.01;98307.88;1720828;83;20956;-67
2021/07/23 17:16:28;;;;;;;8.80;5.58;;;;;;;23.54;53.95;98310.55;1720991;83;20897;-67
2021/07/23 17:18:55;;;;;;;7.50;6.47;;;;;;;23.49;54.32;98313.52;1720843;83;20944;-67
2021/07/23 17:21:21;;;;;;;9.45;5.92;;;;;;;23.41;54.60;98312.61;1725788;83;20948;-67
2021/07/23 17:23:49;;;;;;;10.38;6.25;;;;;;;23.34;54.70;98313.02;1720957;83;21779;-67
2021/07/23 17:26:18;;;;;;;7.20;5.70;;;;;;;23.29;55.12;98318.23;1720763;83;21394;-67
2021/07/23 17:28:44;;;;;;;7.75;5.30;;;;;;;23.20;55.42;98315.26;1720803;82;20940;-67
2021/07/23 17:31:10;;;;;;;12.28;5.92;;;;;;;23.13;55.72;98311.06;1720884;83;20949;-68
2021/07/23 17:33:38;;;;;;;9.38;6.72;;;;;;;23.07;56.35;98309.88;1725876;83;20869;-68
2021/07/23 17:36:05;;;;;;;7.85;6.58;;;;;;;23.01;56.50;98310.64;1720817;83;21076;-66
2021/07/23 17:38:32;;;;;;;17.82;7.58;;;;;;;22.94;55.72;98309.70;1720940;83;20988;-68
2021/07/23 17:41:00;;;;;;;12.88;7.45;;;;;;;22.87;55.65;98306.00;1721220;83;21377;-67
2021/07/23 17:43:30;;;;;;;11.28;8.55;;;;;;;22.82;56.28;98304.36;1725807;82;20904;-68
2021/07/23 17:48:28;;;;;;;9.00;6.83;;;;;;;22.70;57.15;98312.16;1725818;83;23321;-68
2021/07/23 17:50:55;;;;;;;;;;;;;;;22.64;57.12;98309.67;1723330;83;20917;-67
2021/07/23 17:53:22;;;;;;;11.38;6.35;;;;;;;22.56;57.36;98306.98;1725938;83;20123;-70
2021/07/23 17:55:48;;;;;;;7.55;6.15;;;;;;;22.48;57.68;98304.33;1721109;83;20960;-67
2021/07/23 17:58:15;;;;;;;6.90;5.53;;;;;;;22.43;57.66;98312.25;1721062;83;21374;-67
2021/07/23 18:00:44;;;;;;;6.97;5.92;;;;;;;22.34;57.18;98309.59;1721175;83;21908;-68